Time,TemperatureF,DewpointF,PressureIn,WindDirection,WindDirectionDegrees,WindSpeedMPH,WindSpeedGustMPH,Humidity,HourlyPrecipIn,Conditions,Clouds,dailyrainin,SolarRadiationWatts/m^2,SoftwareType,DateUTC
2013-06-13 00:33:00,71.0,32.0,-100.00,South,187,7.0,11.0,23,0.00,,,-99.99,0.000000,,2013-06-13 06:33:00,
2013-06-13 00:44:00,72.0,31.0,-100.00,South,185,8.0,11.0,22,0.00,,,-99.99,0.000000,,2013-06-13 06:44:00,
2013-06-13 00:52:00,72.0,31.0,-100.00,South,185,8.0,11.0,22,0.00,,,-99.99,0.000000,,2013-06-13 06:52:00,
2013-06-13 01:01:00,72.0,30.0,-100.00,South,188,8.0,11.0,21,0.00,,,-99.99,0.000000,,2013-06-13 07:01:00,
2013-06-13 01:11:00,72.0,30.0,-100.00,South,188,8.0,11.0,21,0.00,,,-99.99,0.000000,,2013-06-13 07:11:00,
2013-06-13 01:22:00,73.0,31.0,-100.00,South,187,8.0,11.0,21,0.00,,,-99.99,0.000000,,2013-06-13 07:22:00,
2013-06-13 01:33:00,72.0,30.0,-100.00,South,186,8.0,12.0,21,0.00,,,-99.99,0.000000,,2013-06-13 07:33:00,
2013-06-13 01:42:00,72.0,31.0,-100.00,South,188,7.0,9.0,22,0.00,,,-99.99,0.000000,,2013-06-13 07:42:00,
2013-06-13 01:52:00,71.0,32.0,-100.00,South,186,7.0,9.0,23,0.00,,,-99.99,0.000000,,2013-06-13 07:52:00,
2013-06-13 02:01:00,71.0,30.0,-100.00,South,184,6.0,9.0,22,0.00,,,-99.99,0.000000,,2013-06-13 08:01:00,
2013-06-13 02:11:00,72.0,31.0,-100.00,South,185,8.0,11.0,22,0.00,,,-99.99,0.000000,,2013-06-13 08:11:00,
2013-06-13 02:22:00,72.0,31.0,-100.00,South,185,8.0,11.0,22,0.00,,,-99.99,0.000000,,2013-06-13 08:22:00,
2013-06-13 02:32:00,72.0,31.0,-100.00,SSW,194,7.0,10.0,22,0.00,,,-99.99,0.000000,,2013-06-13 08:32:00,
2013-06-13 02:42:00,71.0,32.0,-100.00,SSW,192,7.0,9.0,24,0.00,,,-99.99,0.000000,,2013-06-13 08:42:00,
2013-06-13 02:52:00,71.0,32.0,-100.00,SSW,192,7.0,9.0,24,0.00,,,-99.99,0.000000,,2013-06-13 08:52:00,
2013-06-13 03:01:00,70.0,33.0,-100.00,South,183,7.0,9.0,26,0.00,,,-99.99,0.000000,,2013-06-13 09:01:00,
2013-06-13 03:11:00,70.0,33.0,-100.00,South,191,7.0,10.0,26,0.00,,,-99.99,0.000000,,2013-06-13 09:11:00,
2013-06-13 03:22:00,70.0,33.0,-100.00,South,191,7.0,10.0,26,0.00,,,-99.99,0.000000,,2013-06-13 09:22:00,
2013-06-13 03:32:00,69.0,33.0,-100.00,South,186,8.0,11.0,26,0.00,,,-99.99,0.000000,,2013-06-13 09:32:00,
2013-06-13 03:42:00,69.0,33.0,-100.00,South,184,8.0,10.0,26,0.00,,,-99.99,0.000000,,2013-06-13 09:42:00,
2013-06-13 03:50:00,69.0,32.0,-100.00,SSW,196,8.0,11.0,25,0.00,,,-99.99,0.000000,,2013-06-13 09:50:00,
2013-06-13 03:52:00,69.0,33.0,-100.00,South,184,8.0,10.0,26,0.00,,,-99.99,0.000000,,2013-06-13 09:52:00,
2013-06-13 04:01:00,70.0,32.0,-100.00,South,190,7.0,9.0,25,0.00,,,-99.99,0.000000,,2013-06-13 10:01:00,
2013-06-13 04:11:00,69.0,32.0,-100.00,SSW,196,8.0,11.0,25,0.00,,,-99.99,0.000000,,2013-06-13 10:11:00,
2013-06-13 04:22:00,69.0,32.0,-100.00,SSW,196,8.0,11.0,25,0.00,,,-99.99,0.000000,,2013-06-13 10:22:00,
2013-06-13 04:33:00,69.0,32.0,-100.00,SSW,196,8.0,11.0,25,0.00,,,-99.99,0.000000,,2013-06-13 10:33:00,
2013-06-13 04:42:00,69.0,32.0,-100.00,SSW,196,8.0,11.0,25,0.00,,,-99.99,0.000000,,2013-06-13 10:42:00,
2013-06-13 05:24:00,68.0,34.0,-100.00,South,191,6.0,9.0,28,0.00,,,-99.99,0.000000,,2013-06-13 11:24:00,
2013-06-13 05:32:00,68.0,34.0,-100.00,South,191,6.0,9.0,28,0.00,,,-99.99,0.000000,,2013-06-13 11:32:00,
2013-06-13 05:42:00,68.0,34.0,-100.00,SSW,198,6.0,9.0,28,0.00,,,-99.99,0.000000,,2013-06-13 11:42:00,
2013-06-13 05:52:00,68.0,34.0,-100.00,SSW,192,5.0,8.0,28,0.00,,,-99.99,0.000000,,2013-06-13 11:52:00,
2013-06-13 06:01:00,68.0,33.0,-100.00,South,187,5.0,7.0,27,0.00,,,-99.99,0.000000,,2013-06-13 12:01:00,
2013-06-13 06:11:00,69.0,33.0,-100.00,South,191,5.0,7.0,27,0.00,,,-99.99,1.000000,,2013-06-13 12:11:00,
2013-06-13 06:22:00,70.0,32.0,-100.00,South,187,7.0,10.0,25,0.00,,,-99.99,2.000000,,2013-06-13 12:22:00,
2013-06-13 06:34:00,71.0,32.0,-100.00,SSW,195,7.0,10.0,24,0.00,,,-99.99,7.000000,,2013-06-13 12:34:00,
2013-06-13 06:42:00,70.0,33.0,-100.00,South,191,6.0,10.0,25,0.00,,,-99.99,12.000000,,2013-06-13 12:42:00,
2013-06-13 06:52:00,71.0,33.0,-100.00,SSW,193,8.0,11.0,25,0.00,,,-99.99,34.000000,,2013-06-13 12:52:00,
2013-06-13 07:01:00,71.0,34.0,-100.00,South,191,8.0,11.0,26,0.00,,,-99.99,39.000000,,2013-06-13 13:01:00,
2013-06-13 07:11:00,71.0,34.0,-100.00,South,191,8.0,11.0,26,0.00,,,-99.99,39.000000,,2013-06-13 13:11:00,
2013-06-13 07:21:00,71.0,34.0,-100.00,South,189,7.0,11.0,25,0.00,,,-99.99,38.000000,,2013-06-13 13:21:00,
2013-06-13 07:32:00,71.0,33.0,-100.00,South,187,7.0,10.0,25,0.00,,,-99.99,61.000000,,2013-06-13 13:32:00,
2013-06-13 07:43:00,71.0,35.0,-100.00,South,189,8.0,10.0,26,0.00,,,-99.99,92.000000,,2013-06-13 13:43:00,
2013-06-13 07:53:00,71.0,35.0,-100.00,South,189,8.0,10.0,26,0.00,,,-99.99,92.000000,,2013-06-13 13:53:00,
2013-06-13 08:01:00,71.0,36.0,-100.00,South,188,8.0,10.0,28,0.00,,,-99.99,104.000000,,2013-06-13 14:01:00,
2013-06-13 08:11:00,71.0,36.0,-100.00,South,188,8.0,10.0,28,0.00,,,-99.99,104.000000,,2013-06-13 14:11:00,
2013-06-13 08:22:00,70.0,38.0,-100.00,South,189,7.0,9.0,31,0.00,,,-99.99,251.000000,,2013-06-13 14:22:00,
2013-06-13 08:33:00,72.0,37.0,-100.00,SSW,193,7.0,12.0,28,0.00,,,-99.99,279.000000,,2013-06-13 14:33:00,
2013-06-13 08:43:00,74.0,40.0,-100.00,SSW,192,6.0,9.0,29,0.00,,,-99.99,359.000000,,2013-06-13 14:43:00,
2013-06-13 08:50:00,78.0,35.0,-100.00,SSW,193,9.0,15.0,21,0.00,,,-99.99,450.000000,,2013-06-13 14:50:00,
2013-06-13 08:53:00,74.0,40.0,-100.00,SSW,192,6.0,9.0,29,0.00,,,-99.99,359.000000,,2013-06-13 14:53:00,
2013-06-13 09:01:00,76.0,34.0,-100.00,SSW,198,6.0,13.0,22,0.00,,,-99.99,387.000000,,2013-06-13 15:01:00,
2013-06-13 09:11:00,78.0,35.0,-100.00,SSW,193,9.0,15.0,21,0.00,,,-99.99,450.000000,,2013-06-13 15:11:00,
2013-06-13 09:21:00,78.0,35.0,-100.00,SSW,193,9.0,15.0,21,0.00,,,-99.99,450.000000,,2013-06-13 15:21:00,
2013-06-13 09:33:00,78.0,35.0,-100.00,SSW,193,9.0,15.0,21,0.00,,,-99.99,450.000000,,2013-06-13 15:33:00,
2013-06-13 09:43:00,78.0,35.0,-100.00,SSW,193,9.0,15.0,21,0.00,,,-99.99,450.000000,,2013-06-13 15:43:00,
2013-06-13 10:22:00,81.0,36.0,-100.00,SSW,192,10.0,16.0,20,0.00,,,-99.99,669.000000,,2013-06-13 16:22:00,
2013-06-13 10:33:00,81.0,36.0,-100.00,SSW,192,10.0,16.0,20,0.00,,,-99.99,669.000000,,2013-06-13 16:33:00,
2013-06-13 10:43:00,81.0,34.0,-100.00,SSW,197,12.0,19.0,18,0.00,,,-99.99,724.000000,,2013-06-13 16:43:00,
2013-06-13 10:53:00,81.0,34.0,-100.00,SSW,197,12.0,19.0,18,0.00,,,-99.99,724.000000,,2013-06-13 16:53:00,
2013-06-13 11:02:00,82.0,34.0,-100.00,SW,216,13.0,20.0,18,0.00,,,-99.99,782.000000,,2013-06-13 17:02:00,
2013-06-13 11:11:00,82.0,34.0,-100.00,SW,216,13.0,20.0,18,0.00,,,-99.99,782.000000,,2013-06-13 17:11:00,
2013-06-13 11:24:00,82.0,34.0,-100.00,SW,220,13.0,21.0,18,0.00,,,-99.99,795.000000,,2013-06-13 17:24:00,
2013-06-13 11:32:00,83.0,30.0,-100.00,SSW,211,13.0,20.0,15,0.00,,,-99.99,815.000000,,2013-06-13 17:32:00,
2013-06-13 11:43:00,83.0,29.0,-100.00,SSW,210,14.0,21.0,14,0.00,,,-99.99,860.000000,,2013-06-13 17:43:00,
2013-06-13 11:53:00,83.0,29.0,-100.00,SSW,210,14.0,21.0,14,0.00,,,-99.99,860.000000,,2013-06-13 17:53:00,
2013-06-13 12:02:00,84.0,30.0,-100.00,SSW,196,12.0,21.0,14,0.00,,,-99.99,884.000000,,2013-06-13 18:02:00,
2013-06-13 12:11:00,84.0,29.0,-100.00,SSW,197,14.0,20.0,14,0.00,,,-99.99,894.000000,,2013-06-13 18:11:00,
2013-06-13 12:22:00,85.0,28.0,-100.00,SW,214,12.0,20.0,13,0.00,,,-99.99,917.000000,,2013-06-13 18:22:00,
2013-06-13 12:33:00,85.0,26.0,-100.00,SSW,211,14.0,22.0,12,0.00,,,-99.99,951.000000,,2013-06-13 18:33:00,
2013-06-13 12:43:00,85.0,28.0,-100.00,SW,223,13.0,20.0,13,0.00,,,-99.99,965.000000,,2013-06-13 18:43:00,
2013-06-13 12:52:00,85.0,28.0,-100.00,SW,223,13.0,20.0,13,0.00,,,-99.99,965.000000,,2013-06-13 18:52:00,
2013-06-13 13:00:00,86.0,23.0,-100.00,SW,221,11.0,19.0,10,0.00,,,-99.99,990.000000,,2013-06-13 19:00:00,
2013-06-13 13:01:00,85.0,27.0,-100.00,SW,215,12.0,18.0,12,0.00,,,-99.99,974.000000,,2013-06-13 19:01:00,
2013-06-13 13:11:00,86.0,27.0,-100.00,SW,221,12.0,21.0,12,0.00,,,-99.99,980.000000,,2013-06-13 19:11:00,
2013-06-13 13:22:00,86.0,23.0,-100.00,SW,221,11.0,19.0,10,0.00,,,-99.99,990.000000,,2013-06-13 19:22:00,
2013-06-13 13:32:00,86.0,23.0,-100.00,SW,221,11.0,19.0,10,0.00,,,-99.99,990.000000,,2013-06-13 19:32:00,
2013-06-13 13:43:00,86.0,23.0,-100.00,SW,221,11.0,19.0,10,0.00,,,-99.99,990.000000,,2013-06-13 19:43:00,
2013-06-13 13:53:00,86.0,23.0,-100.00,SW,221,11.0,19.0,10,0.00,,,-99.99,990.000000,,2013-06-13 19:53:00,